Terminal Aerodrome Forecast
Issued by NWS Greer, SC

Home | Current Version | Previous Version | Text Only | Print | Product List | Glossary On
Versions: 1 2 3 4 5 6 7 8 9 10 11 12 13 14 15 16 17 18 19 20 21 22 23 24 25 26 27
000
FTUS42 KGSP 300856 AAA
TAFCLT
TAF AMD
KCLT 300856Z 3009/3106 28003KT P6SM FEW120 SCT220
     FM301500 26004KT P6SM SCT250
     FM301800 25006KT P6SM SCT060
     FM302000 24006KT P6SM BKN070 PROB30 3020/3102 4SM -TSRA
      OVC040CB
     FM310400 22004KT P6SM SCT070=

USA.gov is the U.S. government's official web portal to all federal, state and local government web resources and services.